Ashby, Nebraska
Current Conditions -  °F | °C
As of 4:53 PM on Friday 28 Nov 2014 (Local Time) from KAIA Reporting Station
Clear Clear  
Wind Chill:   Ceiling: Unl
Heat Index:   Visibility: 10mi
Dew Point: -7°   Wind: 10mph
Humidity: 34%   Direction: 200°SSW
Pressure: 29.71"   Gusts: NA
Location:  42.02°N, 101.93°W
Report Text: KAIA 282353Z AUTO 20009KT 10SM CLR 08/M07 A2971 RMK AO2 SLP067 T00831067 10200 20083 53002
Loading
Personal Weather Stations






























Interactive Weather Map New forecast layout! Learn more

10-Day Weather Forecast

Advertisements
Track Severe Weather on mobile